Latest Coastal Weather Observations for Weipa

IDQ60701

Issued at 6:22 am EST Thursday 19 October 2017 (issued every 10 minutes, with the page automatically refreshed every 10 minutes)

About coastal observations | Map of coastal stations | Coastal observations for QLD | Marine services | Other Formats
Station Details ID: 027045 Name: WEIPA AERO Lat: -12.68 Lon: 141.92 Height: 17.96 m
Data from the previous 72 hours. | See also: Recent months at Weipa
Date/Time
EST
Temp
°C
Wind Pressure Rain since
9am
mm
Weather Cloud Vis
km
Sea
Height
m
Swell
Dir  Spd
kts
Gust
kts
hPa Trend Height
m
Period
s
Dir
19/06:00am 23.0 E 5 5 1009.6 - 0.0 - - 8 - - - -
19/05:30am 23.1 ESE 4 5 1009.2 - 0.0 - - 10 - - - -
19/05:00am 23.6 ESE 3 4 1008.8 - 0.0 - - 10 - - - -
19/04:30am 23.6 ESE 3 4 1008.5 - 0.0 - - 10 - - - -
19/04:00am 23.7 CALM 0 3 1008.2 - 0.0 - Partly cloudy 10 - - - -
19/03:30am 24.0 E 4 5 1008.2 - 0.0 - Partly cloudy 10 - - - -
19/03:00am 24.1 E 4 6 1008.5 - 0.0 - - 10 - - - -
19/02:30am 24.5 ENE 4 5 1008.8 - 0.0 - Partly cloudy 10 - - - -
19/02:00am 24.5 NNE 4 6 1009.1 - 0.0 - Partly cloudy 10 - - - -
19/01:30am 24.6 NE 4 5 1009.4 - 0.0 - Partly cloudy 10 - - - -
19/01:00am 24.7 NE 3 5 1010.0 - 0.0 - Partly cloudy 10 - - - -
19/12:30am 25.0 E 6 7 1010.5 - 0.0 - Partly cloudy 10 - - - -
19/12:00am 25.2 ENE 6 8 1010.7 - 0.0 - Partly cloudy 10 - - - -
 
Date/Time
EST
Temp
°C
Wind Pressure Rain since
9am
mm
Weather Cloud Vis
km
Sea
Height
m
Swell
Dir  Spd
kts
Gust
kts
hPa Trend Height
m
Period
s
Dir
18/11:30pm 25.3 NE 6 8 1010.7 - 0.0 - Partly cloudy 10 - - - -
18/11:00pm 25.5 NE 5 8 1010.7 - 0.0 - - 10 - - - -
18/10:30pm 25.9 NNE 7 9 1010.6 - 0.0 - - 10 - - - -
18/10:00pm 26.5 ENE 8 11 1010.6 - 0.0 - Partly cloudy 10 - - - -
18/09:30pm 26.7 WNW 4 5 1010.2 - 0.0 - Partly cloudy 10 - - - -
18/09:00pm 26.4 NW 4 5 1009.7 - 0.0 - Mostly clear 10 - - - -
18/08:30pm 27.0 NE 4 6 1009.1 - 0.0 - - 10 - - - -
18/08:00pm 27.5 WNW 3 7 1008.6 - 0.0 - - 10 - - - -
18/07:30pm 27.7 SW 5 9 1007.6 - 0.0 - - 10 - - - -
18/07:00pm 27.8 WSW 6 9 1007.1 - 0.0 - - 10 - - - -
18/06:30pm 28.2 W 6 10 1007.0 - 0.0 - - 10 - - - -
18/06:00pm 28.8 W 8 13 1006.7 - 0.0 - - 10 - - - -
18/05:30pm 29.5 W 8 14 1006.2 - 0.0 - - 10 - - - -
18/05:00pm 30.1 W 9 15 1005.9 - 0.0 - - 10 - - - -
18/04:30pm 30.6 W 9 15 1005.8 - 0.0 - - 10 - - - -
18/04:00pm 30.9 WNW 11 17 1005.8 - 0.0 - - 10 - - - -
18/03:30pm 32.0 WNW 12 19 1005.9 - 0.0 - - 10 - - - -
18/03:00pm 31.7 W 12 16 1006.0 - 0.0 - - 10 - - - -
18/02:30pm 31.9 W 12 17 1006.2 - 0.0 - - 10 - - - -
18/02:00pm 33.2 W 9 15 1006.4 - 0.0 - - 10 - - - -
18/01:30pm 35.2 S 5 11 1006.9 - 0.0 - - 10 - - - -
18/01:00pm 34.0 SE 7 12 1007.5 - 0.0 - - 10 - - - -
18/12:30pm 34.2 ENE 5 8 1007.9 - 0.0 - - 10 - - - -
18/12:00pm 33.2 S 4 8 1008.5 - 0.0 - - 10 - - - -
18/11:30am 32.7 SSE 3 8 1008.9 - 0.0 - - 10 - - - -
18/11:00am 31.5 SE 7 13 1009.6 - 0.0 - - 10 - - - -
18/10:30am 31.1 SE 6 9 1009.9 - 0.0 - - 10 - - - -
18/10:00am 29.6 ESE 6 10 1010.2 - 0.0 - - 10 - - - -
18/09:30am 28.6 ESE 6 9 1010.4 - 0.0 - - 10 - - - -
18/09:00am 28.1 ENE 7 9 1010.3 - 0.0 - - 10 - - - -
18/08:30am 26.7 E 7 10 1010.4 - 0.0 - - 10 - - - -
18/08:00am 25.4 E 7 9 1010.2 - 0.0 - - 10 - - - -
18/07:30am 24.0 ESE 5 7 1010.1 - 0.0 - - 10 - - - -
18/07:00am 22.5 SSE 2 4 1009.7 - 0.0 - - 10 - - - -
18/06:30am 21.2 CALM 0 0 1008.9 - 0.0 - - 10 - - - -
18/06:00am 21.2 CALM 0 0 1008.6 - 0.0 - - 10 - - - -
18/05:30am 21.3 CALM 0 0 1008.3 - 0.0 - - 10 - - - -
18/05:00am 21.8 SSE 3 4 1008.0 - 0.0 - - 10 - - - -
18/04:30am 22.3 E 4 6 1007.6 - 0.0 - - 10 - - - -
18/04:01am 22.3 SE 5 8 1007.5 - 0.0 - Partly cloudy 10 - - - -
18/04:00am 22.4 ESE 5 8 1007.5 - 0.0 - Partly cloudy 10 - - - -
18/03:30am 22.5 SE 5 7 1007.5 - 0.0 - Cloudy 10 - - - -
18/03:09am 22.5 S 4 5 1007.6 - 0.0 - Partly cloudy 10 - - - -
18/03:00am 22.4 SSE 4 5 1007.5 - 0.0 - Mostly clear 10 - - - -
18/02:30am 22.6 E 4 5 1007.7 - 0.0 - Partly cloudy 10 - - - -
18/02:00am 23.0 ENE 2 4 1007.9 - 0.0 - - 10 - - - -
18/01:30am 23.2 E 5 5 1008.3 - 0.0 - - 10 - - - -
18/01:00am 23.5 E 6 7 1008.6 - 0.0 - - 10 - - - -
18/12:30am 23.8 ESE 9 12 1009.1 - 0.0 - - 10 - - - -
18/12:00am 24.1 ESE 11 13 1009.4 - 0.0 - Mostly clear 10 - - - -
 
Date/Time
EST
Temp
°C
Wind Pressure Rain since
9am
mm
Weather Cloud Vis
km
Sea
Height
m
Swell
Dir  Spd
kts
Gust
kts
hPa Trend Height
m
Period
s
Dir
17/11:30pm 25.1 ESE 10 13 1009.6 - 0.0 - Partly cloudy 10 - - - -
17/11:00pm 25.8 ESE 9 12 1009.6 - 0.0 - Cloudy 10 - - - -
17/10:30pm 26.1 E 5 6 1009.6 - 0.0 - Partly cloudy 10 - - - -
17/10:00pm 26.2 E 7 9 1009.2 - 0.0 - Partly cloudy 10 - - - -
17/09:30pm 26.5 ESE 8 12 1009.0 - 0.0 - Partly cloudy 10 - - - -
17/09:00pm 26.5 SW 3 4 1008.7 - 0.0 - Mostly clear 10 - - - -
17/08:30pm 26.7 S 3 5 1008.5 - 0.0 - Partly cloudy 10 - - - -
17/08:00pm 26.9 SSW 4 5 1008.1 - 0.0 - - 10 - - - -
17/07:30pm 27.1 SW 5 10 1007.6 - 0.0 - Partly cloudy 10 - - - -
17/07:00pm 27.3 SW 6 11 1007.1 - 0.0 - - 10 - - - -
17/06:30pm 27.8 WSW 7 12 1006.7 - 0.0 - - 10 - - - -
17/06:00pm 28.9 WSW 8 13 1006.1 - 0.0 - - 10 - - - -
17/05:30pm 29.8 WSW 9 15 1005.8 - 0.0 - - 10 - - - -
17/05:00pm 29.9 WSW 9 15 1005.5 - 0.0 - - 10 - - - -
17/04:30pm 30.3 WSW 11 17 1005.3 - 0.0 - - 10 - - - -
17/04:00pm 31.5 W 10 15 1005.2 - 0.0 - - 10 - - - -
17/03:30pm 31.7 W 10 14 1005.3 - 0.0 - - 10 - - - -
17/03:00pm 31.3 W 11 15 1005.5 - 0.0 - - 10 - - - -
17/02:30pm 32.3 W 7 12 1005.6 - 0.0 - - 10 - - - -
17/02:00pm 31.8 SW 5 11 1006.1 - 0.0 - Partly cloudy 10 - - - -
17/01:30pm 31.1 WSW 6 10 1006.8 - 0.0 - Partly cloudy 10 - - - -
17/01:00pm 31.2 ESE 3 6 1007.3 - 0.0 - - 10 - - - -
17/12:30pm 30.2 ENE 2 6 1007.9 - 0.0 - - 10 - - - -
17/12:00pm 29.9 NE 5 7 1008.5 - 0.0 - - 10 - - - -
17/11:30am 29.4 NE 7 9 1009.0 - 0.0 - - 10 - - - -
17/11:00am 29.9 NE 6 9 1009.4 - 0.0 - - 10 - - - -
17/10:30am 28.9 NNE 5 7 1009.8 - 0.0 - - 10 - - - -
17/10:00am 28.7 NNE 5 6 1010.2 - 0.0 - - 10 - - - -
17/09:30am 28.3 E 4 6 1010.5 - 0.0 - Partly cloudy 10 - - - -
17/09:00am 27.9 SE 7 10 1010.4 - 0.0 - Partly cloudy 10 - - - -
17/08:30am 28.0 ESE 8 10 1010.4 - 0.0 - - 10 - - - -
17/08:00am 26.9 E 9 13 1009.8 - 0.0 - Partly cloudy 10 - - - -
17/07:30am 26.0 ESE 7 9 1009.1 - 0.0 - Partly cloudy 10 - - - -
17/07:00am 24.6 ESE 5 7 1008.4 - 0.0 - Cloudy 10 - - - -
17/06:30am 24.2 ESE 5 7 1008.1 - 0.0 - Partly cloudy 10 - - - -
17/06:00am 24.0 ESE 5 6 1007.9 - 0.0 - Mostly cloudy 9 - - - -
17/05:57am 23.9 ESE 5 6 1007.9 - 0.0 - Partly cloudy 9 - - - -
17/05:37am 23.9 E 4 5 1007.8 - 0.0 - Partly cloudy 6 - - - -
17/05:36am 23.9 E 4 5 1007.8 - 0.0 - Partly cloudy 7 - - - -
17/05:30am 23.8 E 4 6 1007.8 - 0.0 - Partly cloudy 9 - - - -
17/05:16am 23.8 ENE 4 5 1007.6 - 0.0 - Partly cloudy 6 - - - -
17/05:00am 23.9 NE 3 4 1007.4 - 0.0 - Cloudy 7 - - - -
17/04:30am 23.8 ENE 2 4 1007.0 - 0.0 - Cloudy 10 - - - -
17/04:00am 23.7 CALM 0 2 1006.9 - 0.0 - Cloudy 10 - - - -
17/03:38am 23.7 E 3 5 1006.8 - 0.0 - Cloudy 8 - - - -
17/03:30am 23.6 CALM 0 5 1006.8 - 0.0 - Partly cloudy 7 - - - -
17/03:24am 23.4 CALM 0 3 1006.8 - 0.0 - Partly cloudy 6 - - - -
17/03:00am 23.2 CALM 0 0 1006.6 - 0.0 - Mostly clear 10 - - - -
17/02:30am 23.4 E 3 4 1006.8 - 0.0 - - 10 - - - -
17/02:00am 23.6 SE 5 6 1007.4 - 0.0 - - 10 - - - -
17/01:30am 23.5 ENE 5 7 1007.8 - 0.0 - - 9 - - - -
17/01:00am 23.9 ESE 1 4 1008.1 - 0.0 - - 10 - - - -
17/12:30am 23.8 SE 3 5 1008.6 - 0.0 - - 10 - - - -
17/12:00am 23.9 SE 5 7 1008.8 - 0.0 - - 10 - - - -
 
Date/Time
EST
Temp
°C
Wind Pressure Rain since
9am
mm
Weather Cloud Vis
km
Sea
Height
m
Swell
Dir  Spd
kts
Gust
kts
hPa Trend Height
m
Period
s
Dir
16/11:39pm 24.2 ESE 6 7 1008.9 - 0.0 - - 10 - - - -
16/11:30pm 24.0 ESE 5 6 1008.9 - 0.0 - - 7 - - - -
16/11:15pm 24.0 E 5 6 1009.0 - 0.0 - - 6 - - - -
16/11:00pm 24.3 E 3 4 1008.9 - 0.0 - - 10 - - - -
16/10:30pm 24.4 CALM 0 4 1009.2 - 0.0 - - 10 - - - -
16/10:00pm 24.6 ENE 5 6 1009.3 - 0.0 - Partly cloudy 10 - - - -
16/09:30pm 25.0 E 8 10 1009.4 - 0.0 - Cloudy 8 - - - -
16/09:00pm 24.7 E 7 9 1009.0 - 0.0 - Mostly clear 10 - - - -
16/08:30pm 25.0 ENE 6 8 1008.5 - 0.0 - Partly cloudy 10 - - - -
16/08:00pm 25.4 NE 8 12 1007.9 - 0.0 - Partly cloudy 10 - - - -
16/07:30pm 25.8 NE 7 11 1007.4 - 0.0 - Partly cloudy 10 - - - -
16/07:00pm 25.8 NE 6 9 1007.0 - 0.0 - Partly cloudy 10 - - - -
16/06:30pm 26.8 NE 9 13 1006.7 - 0.0 - Partly cloudy 10 - - - -
16/06:00pm 27.6 NE 9 11 1006.3 - 0.0 - - 10 - - - -
16/05:30pm 28.5 NNE 8 12 1005.7 - 0.0 - Partly cloudy 10 - - - -
16/05:00pm 30.2 NNE 6 9 1005.3 - 0.0 - - 10 - - - -
16/04:30pm 30.1 ENE 6 9 1005.1 - 0.0 - - 10 - - - -
16/04:00pm 30.1 ENE 7 9 1005.1 - 0.0 - - 10 - - - -
16/03:30pm 29.4 ESE 10 15 1005.4 - 0.0 - Partly cloudy 10 - - - -
16/03:00pm 31.2 SSW 9 16 1005.3 - 0.0 - Mostly clear 10 - - - -
16/02:30pm 32.2 W 15 20 1004.8 - 0.0 - - 10 - - - -
16/02:00pm 34.6 NNE 4 6 1005.1 - 0.0 - - 10 - - - -
16/01:30pm 33.8 N 4 7 1005.8 - 0.0 - Partly cloudy 10 - - - -
16/01:00pm 33.2 NE 5 12 1006.6 - 0.0 - Partly cloudy 10 - - - -
16/12:30pm 34.0 ESE 7 16 1007.0 - 0.0 - Partly cloudy 10 - - - -
16/12:00pm 32.2 NE 9 11 1007.6 - 0.0 - Partly cloudy 10 - - - -
16/11:30am 32.4 ESE 10 14 1008.0 - 0.0 - Partly cloudy 10 - - - -
16/11:00am 31.8 E 10 15 1008.6 - 0.0 - Partly cloudy 10 - - - -
16/10:30am 31.6 E 12 17 1009.0 - 0.0 - - 10 - - - -
16/10:00am 30.2 E 11 15 1009.0 - 0.0 - - 10 - - - -
16/09:30am 29.4 ENE 11 14 1009.1 - 0.0 - - 10 - - - -
16/09:00am 29.0 ESE 12 16 1009.4 - 0.0 - - 9 - - - -
16/08:30am 28.1 E 11 17 1009.2 - 0.0 - - 9 - - - -
16/08:00am 27.2 E 10 13 1009.1 - 0.0 - - 7 - - - -
16/07:53am 27.0 E 11 14 1009.0 - 0.0 - - 7 - - - -
16/07:30am 26.5 E 10 13 1008.8 - 0.0 - - 6 - - - -
16/07:00am 25.8 ESE 8 11 1008.7 - 0.0 - - 6 - - - -
16/06:49am 25.3 E 6 8 1008.3 - 0.0 - - 6 - - - -
16/06:30am 25.0 E 6 7 1008.1 - 0.0 - - 7 - - - -

Other Formats:

Comma delimited format used in spreadsheet applications
http://www.bom.gov.au/fwo/IDQ60701/IDQ60701.94170.axf

JavaScript Object Notation format (JSON) in row-major order
http://www.bom.gov.au/fwo/IDQ60701/IDQ60701.94170.json